Pot Creek, New Mexico
Current Conditions -  °F | °C
As of 7:55 PM on Sunday 21 Dec 2014 (Local Time) from KSKX Reporting Station
Overcast Overcast  
Wind Chill: -3°   Ceiling: 3400
Heat Index:   Visibility: 10mi
Dew Point: -3°   Wind: 8mph
Humidity: 75%   Direction: 240°WSW
Pressure: 29.89"   Gusts: NA
Location:  36.4227°N, 105.509°W
Report Text: KSKX 220255Z AUTO 24007KT 10SM OVC034 01/M03 A2989 RMK AO1 52003
Loading
Personal Weather Stations






























Interactive Weather Map New forecast layout! Learn more

10-Day Weather Forecast

Advertisements
Track Severe Weather on mobile